L'image de la webcam se met à jour toutes les 30s.
La jauge météo se met à jour toutes les 10s d'après les données envoyées par la station météo du club.
Les graphiques se mettent à jour toutes les 5min et ne s'affichent que si la station est en ligne
Surfaces en herbe praticables.
MAJ le 10/06/2021 12h00 DDE
METAR de LFRD (Source NOAA)
LFRD 140930Z AUTO 31007KT 250V340 CAVOK 24/17 Q1021 NOSIG

TAF de LFRD (Source NOAA)
TAF LFRD 140500Z 1406/1506 VRB03KT CAVOK TEMPO 1406/1407 4000 BR BECMG 1409/1411 33010KT BECMG 1420/1422 VRB03KT TEMPO 1422/1506 3000 BR BKN003 PROB30 TEMPO 1501/1506 0500 FG VV///
Ayez la webcam en fond d'écran de votre téléphone ou de votre tablette Android avec l'appli du club.